sensor_id;sensor_type;location;lat;lon;timestamp;temperature;humidity
13707;DHT22;6925;47.816;13.072;2022-12-18T00:01:25;-2.60;69.90
13707;DHT22;6925;47.816;13.072;2022-12-18T00:03:54;-2.60;69.70
13707;DHT22;6925;47.816;13.072;2022-12-18T00:06:25;-2.60;69.70
13707;DHT22;6925;47.816;13.072;2022-12-18T00:08:52;-2.60;69.90
13707;DHT22;6925;47.816;13.072;2022-12-18T00:11:23;-2.70;69.80
13707;DHT22;6925;47.816;13.072;2022-12-18T00:13:54;-2.60;70.10
13707;DHT22;6925;47.816;13.072;2022-12-18T00:16:23;-2.60;70.20
13707;DHT22;6925;47.816;13.072;2022-12-18T00:18:53;-2.60;70.00
13707;DHT22;6925;47.816;13.072;2022-12-18T00:21:21;-2.50;69.80
13707;DHT22;6925;47.816;13.072;2022-12-18T00:23:49;-2.60;69.50
13707;DHT22;6925;47.816;13.072;2022-12-18T00:26:18;-2.60;69.40
13707;DHT22;6925;47.816;13.072;2022-12-18T00:28:46;-2.60;69.50
13707;DHT22;6925;47.816;13.072;2022-12-18T00:31:16;-2.60;69.70
13707;DHT22;6925;47.816;13.072;2022-12-18T00:33:44;-2.60;69.60
13707;DHT22;6925;47.816;13.072;2022-12-18T00:36:13;-2.60;69.30
13707;DHT22;6925;47.816;13.072;2022-12-18T00:38:43;-2.70;69.70
13707;DHT22;6925;47.816;13.072;2022-12-18T00:41:12;-2.70;69.50
13707;DHT22;6925;47.816;13.072;2022-12-18T00:43:39;-2.70;69.50
13707;DHT22;6925;47.816;13.072;2022-12-18T00:46:06;-2.60;69.50
13707;DHT22;6925;47.816;13.072;2022-12-18T00:48:35;-2.60;69.60
13707;DHT22;6925;47.816;13.072;2022-12-18T00:51:02;-2.60;69.30
13707;DHT22;6925;47.816;13.072;2022-12-18T00:53:29;-2.60;68.70
13707;DHT22;6925;47.816;13.072;2022-12-18T00:55:56;-2.60;68.50
13707;DHT22;6925;47.816;13.072;2022-12-18T00:58:24;-2.70;68.70
13707;DHT22;6925;47.816;13.072;2022-12-18T01:00:51;-2.70;68.70
13707;DHT22;6925;47.816;13.072;2022-12-18T01:03:18;-2.70;68.80
13707;DHT22;6925;47.816;13.072;2022-12-18T01:05:47;-2.70;68.70
13707;DHT22;6925;47.816;13.072;2022-12-18T01:08:14;-2.70;68.60
13707;DHT22;6925;47.816;13.072;2022-12-18T01:10:41;-2.80;67.80
13707;DHT22;6925;47.816;13.072;2022-12-18T01:13:08;-2.90;68.30
13707;DHT22;6925;47.816;13.072;2022-12-18T01:15:35;-3.00;68.90
13707;DHT22;6925;47.816;13.072;2022-12-18T01:18:06;-3.00;69.40
13707;DHT22;6925;47.816;13.072;2022-12-18T01:20:33;-3.00;69.60
13707;DHT22;6925;47.816;13.072;2022-12-18T01:23:02;-3.00;69.60
13707;DHT22;6925;47.816;13.072;2022-12-18T01:25:29;-2.90;69.80
13707;DHT22;6925;47.816;13.072;2022-12-18T01:27:57;-2.90;69.30
13707;DHT22;6925;47.816;13.072;2022-12-18T01:30:24;-2.90;69.20
13707;DHT22;6925;47.816;13.072;2022-12-18T01:32:51;-2.90;69.10
13707;DHT22;6925;47.816;13.072;2022-12-18T01:35:19;-2.90;68.90
13707;DHT22;6925;47.816;13.072;2022-12-18T01:37:46;-3.10;68.20
13707;DHT22;6925;47.816;13.072;2022-12-18T01:40:15;-3.10;68.90
13707;DHT22;6925;47.816;13.072;2022-12-18T01:42:43;-3.10;69.20
13707;DHT22;6925;47.816;13.072;2022-12-18T01:45:25;-3.00;69.60
13707;DHT22;6925;47.816;13.072;2022-12-18T01:47:56;-3.10;69.60
13707;DHT22;6925;47.816;13.072;2022-12-18T01:50:28;-3.10;69.90
13707;DHT22;6925;47.816;13.072;2022-12-18T01:53:01;-3.00;70.10
13707;DHT22;6925;47.816;13.072;2022-12-18T01:55:35;-3.00;69.80
13707;DHT22;6925;47.816;13.072;2022-12-18T01:58:04;-2.90;69.70
13707;DHT22;6925;47.816;13.072;2022-12-18T02:00:31;-2.90;69.60
13707;DHT22;6925;47.816;13.072;2022-12-18T02:02:59;-2.80;69.50
13707;DHT22;6925;47.816;13.072;2022-12-18T02:05:33;-3.00;68.70
13707;DHT22;6925;47.816;13.072;2022-12-18T02:08:09;-3.00;69.60
13707;DHT22;6925;47.816;13.072;2022-12-18T02:10:46;-3.00;69.60
13707;DHT22;6925;47.816;13.072;2022-12-18T02:13:20;-3.00;69.80
13707;DHT22;6925;47.816;13.072;2022-12-18T02:15:54;-3.00;69.20
13707;DHT22;6925;47.816;13.072;2022-12-18T02:18:30;-3.00;69.10
13707;DHT22;6925;47.816;13.072;2022-12-18T02:21:02;-3.10;69.10
13707;DHT22;6925;47.816;13.072;2022-12-18T02:23:45;-3.10;69.40
13707;DHT22;6925;47.816;13.072;2022-12-18T02:26:22;-3.10;69.70
13707;DHT22;6925;47.816;13.072;2022-12-18T02:28:54;-3.00;69.10
13707;DHT22;6925;47.816;13.072;2022-12-18T02:31:25;-3.00;68.90
13707;DHT22;6925;47.816;13.072;2022-12-18T02:34:01;-3.10;68.20
13707;DHT22;6925;47.816;13.072;2022-12-18T02:36:31;-3.20;68.40
13707;DHT22;6925;47.816;13.072;2022-12-18T02:39:01;-3.30;68.30
13707;DHT22;6925;47.816;13.072;2022-12-18T02:41:30;-3.30;68.50
13707;DHT22;6925;47.816;13.072;2022-12-18T02:43:59;-3.40;68.90
13707;DHT22;6925;47.816;13.072;2022-12-18T02:46:33;-3.40;69.20
13707;DHT22;6925;47.816;13.072;2022-12-18T02:49:17;-3.30;69.00
13707;DHT22;6925;47.816;13.072;2022-12-18T02:52:01;-3.30;68.60
13707;DHT22;6925;47.816;13.072;2022-12-18T02:54:39;-3.20;68.80
13707;DHT22;6925;47.816;13.072;2022-12-18T02:57:16;-3.30;68.30
13707;DHT22;6925;47.816;13.072;2022-12-18T02:59:50;-3.40;68.30
13707;DHT22;6925;47.816;13.072;2022-12-18T03:02:26;-3.40;68.60
13707;DHT22;6925;47.816;13.072;2022-12-18T03:04:57;-3.40;68.20
13707;DHT22;6925;47.816;13.072;2022-12-18T03:07:39;-3.40;68.20
13707;DHT22;6925;47.816;13.072;2022-12-18T03:10:13;-3.40;68.10
13707;DHT22;6925;47.816;13.072;2022-12-18T03:12:46;-3.40;68.10
13707;DHT22;6925;47.816;13.072;2022-12-18T03:15:17;-3.40;68.10
13707;DHT22;6925;47.816;13.072;2022-12-18T03:17:50;-3.30;67.90
13707;DHT22;6925;47.816;13.072;2022-12-18T03:20:21;-3.30;67.90
13707;DHT22;6925;47.816;13.072;2022-12-18T03:22:53;-3.30;67.60
13707;DHT22;6925;47.816;13.072;2022-12-18T03:25:25;-3.30;67.80
13707;DHT22;6925;47.816;13.072;2022-12-18T03:27:56;-3.30;67.40
13707;DHT22;6925;47.816;13.072;2022-12-18T03:30:26;-3.40;67.50
13707;DHT22;6925;47.816;13.072;2022-12-18T03:33:00;-3.40;67.70
13707;DHT22;6925;47.816;13.072;2022-12-18T03:35:33;-3.40;67.70
13707;DHT22;6925;47.816;13.072;2022-12-18T03:38:01;-3.40;67.60
13707;DHT22;6925;47.816;13.072;2022-12-18T03:40:38;-3.30;67.80
13707;DHT22;6925;47.816;13.072;2022-12-18T03:43:14;-3.30;67.60
13707;DHT22;6925;47.816;13.072;2022-12-18T03:45:50;-3.40;67.80
13707;DHT22;6925;47.816;13.072;2022-12-18T03:48:26;-3.40;67.90
13707;DHT22;6925;47.816;13.072;2022-12-18T03:50:56;-3.30;67.80
13707;DHT22;6925;47.816;13.072;2022-12-18T03:53:32;-3.30;68.00
13707;DHT22;6925;47.816;13.072;2022-12-18T03:56:04;-3.30;67.70
13707;DHT22;6925;47.816;13.072;2022-12-18T03:58:37;-3.40;67.50
13707;DHT22;6925;47.816;13.072;2022-12-18T04:01:07;-3.40;67.40
13707;DHT22;6925;47.816;13.072;2022-12-18T04:03:36;-3.40;67.50
13707;DHT22;6925;47.816;13.072;2022-12-18T04:06:05;-3.40;67.70
13707;DHT22;6925;47.816;13.072;2022-12-18T04:08:33;-3.40;67.60
13707;DHT22;6925;47.816;13.072;2022-12-18T04:11:02;-3.40;67.70
13707;DHT22;6925;47.816;13.072;2022-12-18T04:13:32;-3.40;67.70
13707;DHT22;6925;47.816;13.072;2022-12-18T04:16:01;-3.40;68.10
13707;DHT22;6925;47.816;13.072;2022-12-18T04:18:28;-3.40;68.10
13707;DHT22;6925;47.816;13.072;2022-12-18T04:20:56;-3.40;67.90
13707;DHT22;6925;47.816;13.072;2022-12-18T04:23:24;-3.40;68.00
13707;DHT22;6925;47.816;13.072;2022-12-18T04:25:51;-3.40;67.90
13707;DHT22;6925;47.816;13.072;2022-12-18T04:28:18;-3.40;68.20
13707;DHT22;6925;47.816;13.072;2022-12-18T04:30:46;-3.40;67.50
13707;DHT22;6925;47.816;13.072;2022-12-18T04:33:17;-3.40;67.70
13707;DHT22;6925;47.816;13.072;2022-12-18T04:35:46;-3.40;67.70
13707;DHT22;6925;47.816;13.072;2022-12-18T04:38:13;-3.40;67.70
13707;DHT22;6925;47.816;13.072;2022-12-18T04:40:41;-3.40;67.20
13707;DHT22;6925;47.816;13.072;2022-12-18T04:43:08;-3.50;67.40
13707;DHT22;6925;47.816;13.072;2022-12-18T04:45:36;-3.50;67.40
13707;DHT22;6925;47.816;13.072;2022-12-18T04:48:04;-3.50;67.60
13707;DHT22;6925;47.816;13.072;2022-12-18T04:50:33;-3.50;67.90
13707;DHT22;6925;47.816;13.072;2022-12-18T04:53:01;-3.50;67.50
13707;DHT22;6925;47.816;13.072;2022-12-18T04:55:29;-3.60;68.00
13707;DHT22;6925;47.816;13.072;2022-12-18T04:57:56;-3.60;67.60
13707;DHT22;6925;47.816;13.072;2022-12-18T05:00:23;-3.60;67.30
13707;DHT22;6925;47.816;13.072;2022-12-18T05:02:50;-3.60;67.30
13707;DHT22;6925;47.816;13.072;2022-12-18T05:05:18;-3.60;66.90
13707;DHT22;6925;47.816;13.072;2022-12-18T05:07:46;-3.60;66.90
13707;DHT22;6925;47.816;13.072;2022-12-18T05:10:14;-3.60;66.60
13707;DHT22;6925;47.816;13.072;2022-12-18T05:12:41;-3.70;66.60
13707;DHT22;6925;47.816;13.072;2022-12-18T05:15:22;-3.70;66.70
13707;DHT22;6925;47.816;13.072;2022-12-18T05:17:49;-3.80;66.90
13707;DHT22;6925;47.816;13.072;2022-12-18T05:20:16;-3.80;66.80
13707;DHT22;6925;47.816;13.072;2022-12-18T05:22:46;-3.80;66.70
13707;DHT22;6925;47.816;13.072;2022-12-18T05:25:13;-3.90;66.40
13707;DHT22;6925;47.816;13.072;2022-12-18T05:27:40;-4.00;66.80
13707;DHT22;6925;47.816;13.072;2022-12-18T05:30:09;-4.00;67.20
13707;DHT22;6925;47.816;13.072;2022-12-18T05:32:37;-4.00;67.20
13707;DHT22;6925;47.816;13.072;2022-12-18T05:35:09;-4.00;67.40
13707;DHT22;6925;47.816;13.072;2022-12-18T05:37:36;-4.10;67.20
13707;DHT22;6925;47.816;13.072;2022-12-18T05:40:07;-4.00;67.10
13707;DHT22;6925;47.816;13.072;2022-12-18T05:42:34;-4.00;67.40
13707;DHT22;6925;47.816;13.072;2022-12-18T05:45:01;-4.00;67.10
13707;DHT22;6925;47.816;13.072;2022-12-18T05:47:29;-3.80;67.20
13707;DHT22;6925;47.816;13.072;2022-12-18T05:49:57;-3.90;66.80
13707;DHT22;6925;47.816;13.072;2022-12-18T05:52:24;-3.90;66.90
13707;DHT22;6925;47.816;13.072;2022-12-18T05:54:51;-4.00;66.10
13707;DHT22;6925;47.816;13.072;2022-12-18T05:57:20;-4.00;66.40
13707;DHT22;6925;47.816;13.072;2022-12-18T05:59:48;-4.00;66.20
13707;DHT22;6925;47.816;13.072;2022-12-18T06:02:15;-4.10;65.90
13707;DHT22;6925;47.816;13.072;2022-12-18T06:04:43;-4.10;66.10
13707;DHT22;6925;47.816;13.072;2022-12-18T06:07:11;-4.10;66.00
13707;DHT22;6925;47.816;13.072;2022-12-18T06:09:38;-4.10;66.10
13707;DHT22;6925;47.816;13.072;2022-12-18T06:12:06;-4.10;66.00
13707;DHT22;6925;47.816;13.072;2022-12-18T06:14:35;-4.10;66.10
13707;DHT22;6925;47.816;13.072;2022-12-18T06:17:02;-4.20;65.90
13707;DHT22;6925;47.816;13.072;2022-12-18T06:19:30;-4.30;65.60
13707;DHT22;6925;47.816;13.072;2022-12-18T06:21:57;-4.50;65.50
13707;DHT22;6925;47.816;13.072;2022-12-18T06:24:25;-4.50;66.60
13707;DHT22;6925;47.816;13.072;2022-12-18T06:26:52;-4.50;66.40
13707;DHT22;6925;47.816;13.072;2022-12-18T06:29:20;-4.50;66.60
13707;DHT22;6925;47.816;13.072;2022-12-18T06:31:50;-4.50;66.40
13707;DHT22;6925;47.816;13.072;2022-12-18T06:34:17;-4.40;66.60
13707;DHT22;6925;47.816;13.072;2022-12-18T06:36:45;-4.50;66.30
13707;DHT22;6925;47.816;13.072;2022-12-18T06:39:12;-4.40;66.30
13707;DHT22;6925;47.816;13.072;2022-12-18T06:41:39;-4.40;66.40
13707;DHT22;6925;47.816;13.072;2022-12-18T06:44:06;-4.40;66.30
13707;DHT22;6925;47.816;13.072;2022-12-18T06:46:37;-4.30;66.00
13707;DHT22;6925;47.816;13.072;2022-12-18T06:49:06;-4.50;65.60
13707;DHT22;6925;47.816;13.072;2022-12-18T06:54:13;-4.60;66.10
13707;DHT22;6925;47.816;13.072;2022-12-18T08:06:34;-4.20;66.10
13707;DHT22;6925;47.816;13.072;2022-12-18T08:09:02;-4.20;65.80
13707;DHT22;6925;47.816;13.072;2022-12-18T08:11:30;-4.20;65.60
13707;DHT22;6925;47.816;13.072;2022-12-18T08:13:57;-4.20;65.70
13707;DHT22;6925;47.816;13.072;2022-12-18T08:16:25;-4.20;66.00
13707;DHT22;6925;47.816;13.072;2022-12-18T08:18:53;-4.20;65.80
13707;DHT22;6925;47.816;13.072;2022-12-18T08:21:22;-4.20;66.00
13707;DHT22;6925;47.816;13.072;2022-12-18T08:23:53;-4.20;66.30
13707;DHT22;6925;47.816;13.072;2022-12-18T08:26:20;-4.20;66.50
13707;DHT22;6925;47.816;13.072;2022-12-18T08:28:48;-4.10;66.30
13707;DHT22;6925;47.816;13.072;2022-12-18T08:31:16;-4.10;66.50
13707;DHT22;6925;47.816;13.072;2022-12-18T08:33:47;-4.10;66.80
13707;DHT22;6925;47.816;13.072;2022-12-18T08:36:15;-4.00;66.90
13707;DHT22;6925;47.816;13.072;2022-12-18T08:38:43;-3.90;66.80
13707;DHT22;6925;47.816;13.072;2022-12-18T08:41:17;-3.80;66.90
13707;DHT22;6925;47.816;13.072;2022-12-18T08:43:46;-3.90;66.30
13707;DHT22;6925;47.816;13.072;2022-12-18T08:46:34;-3.90;66.70
13707;DHT22;6925;47.816;13.072;2022-12-18T08:49:05;-3.80;67.20
13707;DHT22;6925;47.816;13.072;2022-12-18T08:51:34;-3.80;67.50
13707;DHT22;6925;47.816;13.072;2022-12-18T08:54:17;-3.70;67.70
13707;DHT22;6925;47.816;13.072;2022-12-18T08:56:47;-3.50;68.40
13707;DHT22;6925;47.816;13.072;2022-12-18T08:59:15;-3.30;68.80
13707;DHT22;6925;47.816;13.072;2022-12-18T09:01:45;-3.00;70.50
13707;DHT22;6925;47.816;13.072;2022-12-18T09:04:13;-2.70;71.10
13707;DHT22;6925;47.816;13.072;2022-12-18T09:06:41;-2.40;70.60
13707;DHT22;6925;47.816;13.072;2022-12-18T09:09:09;-2.00;70.10
13707;DHT22;6925;47.816;13.072;2022-12-18T09:11:38;-1.70;69.90
13707;DHT22;6925;47.816;13.072;2022-12-18T09:14:17;-1.60;68.20
13707;DHT22;6925;47.816;13.072;2022-12-18T09:16:47;-1.40;69.20
13707;DHT22;6925;47.816;13.072;2022-12-18T09:19:15;-1.10;69.50
13707;DHT22;6925;47.816;13.072;2022-12-18T09:21:42;-0.80;69.40
13707;DHT22;6925;47.816;13.072;2022-12-18T09:24:16;-0.50;69.20
13707;DHT22;6925;47.816;13.072;2022-12-18T09:26:44;-0.20;69.30
13707;DHT22;6925;47.816;13.072;2022-12-18T09:29:11;0.20;68.80
13707;DHT22;6925;47.816;13.072;2022-12-18T09:31:40;0.40;68.40
13707;DHT22;6925;47.816;13.072;2022-12-18T09:34:07;0.70;68.50
13707;DHT22;6925;47.816;13.072;2022-12-18T09:36:35;0.90;67.60
13707;DHT22;6925;47.816;13.072;2022-12-18T09:59:29;1.60;65.30
13707;DHT22;6925;47.816;13.072;2022-12-18T10:19:42;1.40;62.90
13707;DHT22;6925;47.816;13.072;2022-12-18T10:22:39;1.60;64.60
13707;DHT22;6925;47.816;13.072;2022-12-18T10:25:20;1.90;62.70
13707;DHT22;6925;47.816;13.072;2022-12-18T10:27:58;2.00;63.00
13707;DHT22;6925;47.816;13.072;2022-12-18T10:30:28;2.10;63.00
13707;DHT22;6925;47.816;13.072;2022-12-18T10:33:01;2.30;62.90
13707;DHT22;6925;47.816;13.072;2022-12-18T10:35:31;2.40;62.90
13707;DHT22;6925;47.816;13.072;2022-12-18T10:38:06;2.60;63.20
13707;DHT22;6925;47.816;13.072;2022-12-18T10:40:54;2.90;64.30
13707;DHT22;6925;47.816;13.072;2022-12-18T10:43:27;3.40;64.30
13707;DHT22;6925;47.816;13.072;2022-12-18T10:46:21;3.90;64.70
13707;DHT22;6925;47.816;13.072;2022-12-18T10:49:00;4.40;64.10
13707;DHT22;6925;47.816;13.072;2022-12-18T10:51:34;4.80;63.60
13707;DHT22;6925;47.816;13.072;2022-12-18T10:54:06;5.10;63.40
13707;DHT22;6925;47.816;13.072;2022-12-18T10:56:37;5.30;62.60
13707;DHT22;6925;47.816;13.072;2022-12-18T10:59:09;5.60;62.20
13707;DHT22;6925;47.816;13.072;2022-12-18T11:01:48;5.80;61.90
13707;DHT22;6925;47.816;13.072;2022-12-18T11:04:20;6.10;62.00
13707;DHT22;6925;47.816;13.072;2022-12-18T11:07:08;6.30;61.20
13707;DHT22;6925;47.816;13.072;2022-12-18T11:09:37;6.30;57.70
13707;DHT22;6925;47.816;13.072;2022-12-18T11:12:15;5.90;56.70
13707;DHT22;6925;47.816;13.072;2022-12-18T11:14:48;5.30;56.90
13707;DHT22;6925;47.816;13.072;2022-12-18T11:17:20;5.30;58.90
13707;DHT22;6925;47.816;13.072;2022-12-18T11:19:53;5.40;58.20
13707;DHT22;6925;47.816;13.072;2022-12-18T11:22:25;5.20;56.60
13707;DHT22;6925;47.816;13.072;2022-12-18T11:24:56;5.10;56.80
13707;DHT22;6925;47.816;13.072;2022-12-18T11:27:23;4.90;56.60
13707;DHT22;6925;47.816;13.072;2022-12-18T11:29:51;4.80;56.70
13707;DHT22;6925;47.816;13.072;2022-12-18T11:32:33;4.60;56.40
13707;DHT22;6925;47.816;13.072;2022-12-18T11:35:19;4.40;56.80
13707;DHT22;6925;47.816;13.072;2022-12-18T11:37:53;4.50;57.20
13707;DHT22;6925;47.816;13.072;2022-12-18T11:40:29;4.60;57.90
13707;DHT22;6925;47.816;13.072;2022-12-18T11:43:02;4.70;57.80
13707;DHT22;6925;47.816;13.072;2022-12-18T11:45:31;4.70;57.80
13707;DHT22;6925;47.816;13.072;2022-12-18T11:48:04;4.80;57.60
13707;DHT22;6925;47.816;13.072;2022-12-18T11:50:41;4.80;57.40
13707;DHT22;6925;47.816;13.072;2022-12-18T11:53:13;4.90;57.90
13707;DHT22;6925;47.816;13.072;2022-12-18T11:55:55;5.00;57.50
13707;DHT22;6925;47.816;13.072;2022-12-18T11:58:46;5.10;57.20
13707;DHT22;6925;47.816;13.072;2022-12-18T12:01:33;5.20;57.90
13707;DHT22;6925;47.816;13.072;2022-12-18T12:07:05;5.90;57.20
13707;DHT22;6925;47.816;13.072;2022-12-18T12:09:47;5.80;56.50
13707;DHT22;6925;47.816;13.072;2022-12-18T12:12:30;5.80;56.70
13707;DHT22;6925;47.816;13.072;2022-12-18T12:15:17;5.90;56.70
13707;DHT22;6925;47.816;13.072;2022-12-18T12:17:52;5.90;56.10
13707;DHT22;6925;47.816;13.072;2022-12-18T12:20:24;5.80;55.80
13707;DHT22;6925;47.816;13.072;2022-12-18T12:22:58;5.80;56.10
13707;DHT22;6925;47.816;13.072;2022-12-18T12:25:35;5.90;56.00
13707;DHT22;6925;47.816;13.072;2022-12-18T12:28:24;5.80;55.50
13707;DHT22;6925;47.816;13.072;2022-12-18T12:31:23;5.80;56.80
13707;DHT22;6925;47.816;13.072;2022-12-18T12:34:22;6.00;56.30
13707;DHT22;6925;47.816;13.072;2022-12-18T12:37:11;6.00;56.00
13707;DHT22;6925;47.816;13.072;2022-12-18T12:39:51;5.90;55.60
13707;DHT22;6925;47.816;13.072;2022-12-18T12:42:29;5.80;55.70
13707;DHT22;6925;47.816;13.072;2022-12-18T12:45:18;5.50;55.30
13707;DHT22;6925;47.816;13.072;2022-12-18T12:47:51;5.50;55.90
13707;DHT22;6925;47.816;13.072;2022-12-18T12:50:26;5.40;55.70
13707;DHT22;6925;47.816;13.072;2022-12-18T12:52:59;5.40;56.10
13707;DHT22;6925;47.816;13.072;2022-12-18T12:55:43;5.40;55.70
13707;DHT22;6925;47.816;13.072;2022-12-18T12:58:22;5.40;55.70
13707;DHT22;6925;47.816;13.072;2022-12-18T13:00:59;5.30;55.90
13707;DHT22;6925;47.816;13.072;2022-12-18T13:03:39;5.30;56.20
13707;DHT22;6925;47.816;13.072;2022-12-18T13:06:13;5.60;57.70
13707;DHT22;6925;47.816;13.072;2022-12-18T13:08:55;5.70;55.70
13707;DHT22;6925;47.816;13.072;2022-12-18T13:11:37;5.70;55.70
13707;DHT22;6925;47.816;13.072;2022-12-18T13:14:27;5.50;55.20
13707;DHT22;6925;47.816;13.072;2022-12-18T13:17:24;5.60;56.30
13707;DHT22;6925;47.816;13.072;2022-12-18T13:20:04;5.80;56.60
13707;DHT22;6925;47.816;13.072;2022-12-18T13:22:35;5.90;56.60
13707;DHT22;6925;47.816;13.072;2022-12-18T13:27:23;6.10;55.70
13707;DHT22;6925;47.816;13.072;2022-12-18T13:28:52;6.00;55.00
13707;DHT22;6925;47.816;13.072;2022-12-18T13:54:28;5.70;57.50
13707;DHT22;6925;47.816;13.072;2022-12-18T13:58:06;5.50;54.40
13707;DHT22;6925;47.816;13.072;2022-12-18T14:00:53;5.10;55.60
13707;DHT22;6925;47.816;13.072;2022-12-18T14:03:42;4.90;55.50
13707;DHT22;6925;47.816;13.072;2022-12-18T14:06:16;4.60;55.60
13707;DHT22;6925;47.816;13.072;2022-12-18T14:09:26;4.30;56.20
13707;DHT22;6925;47.816;13.072;2022-12-18T14:12:11;4.40;57.20
13707;DHT22;6925;47.816;13.072;2022-12-18T14:15:07;4.20;56.40
13707;DHT22;6925;47.816;13.072;2022-12-18T14:17:58;4.00;56.80
13707;DHT22;6925;47.816;13.072;2022-12-18T14:20:32;3.90;57.00
13707;DHT22;6925;47.816;13.072;2022-12-18T14:23:04;3.80;57.20
13707;DHT22;6925;47.816;13.072;2022-12-18T14:25:46;3.70;57.50
13707;DHT22;6925;47.816;13.072;2022-12-18T14:28:14;3.80;58.10
13707;DHT22;6925;47.816;13.072;2022-12-18T14:30:45;3.90;58.10
13707;DHT22;6925;47.816;13.072;2022-12-18T14:33:21;4.00;57.60
13707;DHT22;6925;47.816;13.072;2022-12-18T14:36:13;3.70;56.70
13707;DHT22;6925;47.816;13.072;2022-12-18T14:38:42;3.50;57.80
13707;DHT22;6925;47.816;13.072;2022-12-18T14:41:14;3.50;58.00
13707;DHT22;6925;47.816;13.072;2022-12-18T14:43:56;3.30;57.80
13707;DHT22;6925;47.816;13.072;2022-12-18T14:46:35;3.20;57.80
13707;DHT22;6925;47.816;13.072;2022-12-18T14:49:21;3.00;58.20
13707;DHT22;6925;47.816;13.072;2022-12-18T14:51:56;2.90;58.30
13707;DHT22;6925;47.816;13.072;2022-12-18T14:54:28;2.90;59.00
13707;DHT22;6925;47.816;13.072;2022-12-18T14:57:05;3.00;59.50
13707;DHT22;6925;47.816;13.072;2022-12-18T14:59:35;3.00;58.90
13707;DHT22;6925;47.816;13.072;2022-12-18T15:02:09;3.10;59.30
13707;DHT22;6925;47.816;13.072;2022-12-18T15:05:00;3.10;59.10
13707;DHT22;6925;47.816;13.072;2022-12-18T15:07:41;3.20;58.80
13707;DHT22;6925;47.816;13.072;2022-12-18T15:10:18;3.10;58.50
13707;DHT22;6925;47.816;13.072;2022-12-18T21:14:30;-1.50;64.70
13707;DHT22;6925;47.816;13.072;2022-12-18T21:16:58;-1.60;65.00
13707;DHT22;6925;47.816;13.072;2022-12-18T23:39:01;-2.10;66.90
13707;DHT22;6925;47.816;13.072;2022-12-18T23:41:30;-2.10;67.10
13707;DHT22;6925;47.816;13.072;2022-12-18T23:44:00;-2.00;67.30
13707;DHT22;6925;47.816;13.072;2022-12-18T23:51:48;-2.20;66.70
13707;DHT22;6925;47.816;13.072;2022-12-18T23:54:50;-2.20;67.50
13707;DHT22;6925;47.816;13.072;2022-12-18T23:57:19;-2.30;67.20
